Aviation Digital Data Service (ADDS)

Output produced by METARs form (0222 UTC 16 January 2019)
found at http://www.aviationweather.gov/metar/data/
 
TAF EEEI 152330Z 1600/1624 32010KT 9999 BKN020 
     BECMG 1614/1616 20010KT 
     PROB40 
     TEMPO 1615/1618 3000 SN BKN006 
     TEMPO 1618/1624 22015G25KT 1500 SN BKN004
       
EEKE 160150Z AUTO 30004KT 9999NDV OVC042 M02/M03 Q0994
TAF COR EEKE 151507Z 1516/1522 29008KT 9999 SCT020CB BKN030 
     TEMPO 1516/1522 30013G23KT 1500 +SHSN BKN006 SCT013CB
       
EETN 160220Z 31012KT 9999 DRSN OVC014 M03/M05 Q0991 R08/450295
TAF EETN 152330Z 1600/1624 31012KT 9999 BKN015 
     PROB40 
     TEMPO 1600/1604 3000 SHSN BKN007 SCT012CB 
     TEMPO 1604/1615 SCT015 
     BECMG 1612/1614 19006KT 
     BECMG 1619/1621 4000 SN OVC010 
     TEMPO 1621/1624 17014G25KT 1500 +SN VV005
       
EETU 160150Z 28009KT 9999 OVC012 M03/M05 Q0990
TAF EETU 152100Z 1522/1604 29010KT 6000 OVC005 
     TEMPO 1522/1524 2000 SNSG BR OVC003 
     PROB40 
     TEMPO 1522/1601-FZDZ 
     BECMG 1600/1602 SCT006 OVC012